sensor_id;sensor_type;location;lat;lon;timestamp;P1;durP1;ratioP1;P2;durP2;ratioP2
57317;SDS011;43157;50.982;18.132;2023-05-10T00:00:07;10.30;;;3.80;;
57317;SDS011;43157;50.982;18.132;2023-05-10T00:02:34;16.60;;;5.20;;
57317;SDS011;43157;50.982;18.132;2023-05-10T00:05:00;11.80;;;3.10;;
57317;SDS011;43157;50.982;18.132;2023-05-10T00:07:26;12.80;;;4.40;;
57317;SDS011;43157;50.982;18.132;2023-05-10T00:09:52;12.80;;;4.40;;
57317;SDS011;43157;50.982;18.132;2023-05-10T00:12:18;11.60;;;3.40;;
57317;SDS011;43157;50.982;18.132;2023-05-10T00:14:44;10.90;;;4.10;;
57317;SDS011;43157;50.982;18.132;2023-05-10T00:17:10;10.20;;;3.40;;
57317;SDS011;43157;50.982;18.132;2023-05-10T00:19:36;14.20;;;3.90;;
57317;SDS011;43157;50.982;18.132;2023-05-10T00:22:01;15.70;;;4.10;;
57317;SDS011;43157;50.982;18.132;2023-05-10T00:24:27;12.00;;;4.00;;
57317;SDS011;43157;50.982;18.132;2023-05-10T00:26:52;11.40;;;3.60;;
57317;SDS011;43157;50.982;18.132;2023-05-10T00:29:18;14.90;;;3.90;;
57317;SDS011;43157;50.982;18.132;2023-05-10T00:31:44;11.10;;;3.30;;
57317;SDS011;43157;50.982;18.132;2023-05-10T00:34:10;12.20;;;4.20;;
57317;SDS011;43157;50.982;18.132;2023-05-10T00:36:36;13.10;;;3.90;;
57317;SDS011;43157;50.982;18.132;2023-05-10T00:39:02;10.00;;;3.50;;
57317;SDS011;43157;50.982;18.132;2023-05-10T00:41:29;11.80;;;3.70;;
57317;SDS011;43157;50.982;18.132;2023-05-10T00:43:57;11.10;;;4.00;;
57317;SDS011;43157;50.982;18.132;2023-05-10T00:46:23;13.10;;;4.30;;
57317;SDS011;43157;50.982;18.132;2023-05-10T00:48:50;12.00;;;3.70;;
57317;SDS011;43157;50.982;18.132;2023-05-10T00:51:15;12.40;;;4.30;;
57317;SDS011;43157;50.982;18.132;2023-05-10T00:53:41;15.00;;;4.60;;
57317;SDS011;43157;50.982;18.132;2023-05-10T00:56:07;12.60;;;3.70;;
57317;SDS011;43157;50.982;18.132;2023-05-10T00:58:32;14.80;;;4.30;;
57317;SDS011;43157;50.982;18.132;2023-05-10T01:00:58;11.10;;;3.30;;
57317;SDS011;43157;50.982;18.132;2023-05-10T01:03:25;16.60;;;4.70;;
57317;SDS011;43157;50.982;18.132;2023-05-10T01:05:51;11.00;;;3.70;;
57317;SDS011;43157;50.982;18.132;2023-05-10T01:08:16;11.90;;;3.50;;
57317;SDS011;43157;50.982;18.132;2023-05-10T01:10:42;14.00;;;4.40;;
57317;SDS011;43157;50.982;18.132;2023-05-10T01:13:08;12.60;;;4.40;;
57317;SDS011;43157;50.982;18.132;2023-05-10T01:15:34;11.50;;;4.50;;
57317;SDS011;43157;50.982;18.132;2023-05-10T01:18:01;12.90;;;4.30;;
57317;SDS011;43157;50.982;18.132;2023-05-10T01:20:27;11.90;;;3.80;;
57317;SDS011;43157;50.982;18.132;2023-05-10T01:34:00;13.10;;;4.40;;
57317;SDS011;43157;50.982;18.132;2023-05-10T01:39:22;11.40;;;3.90;;
57317;SDS011;43157;50.982;18.132;2023-05-10T01:41:52;12.10;;;3.40;;
57317;SDS011;43157;50.982;18.132;2023-05-10T01:46:53;12.50;;;4.20;;
57317;SDS011;43157;50.982;18.132;2023-05-10T01:49:37;12.60;;;4.80;;
57317;SDS011;43157;50.982;18.132;2023-05-10T01:52:08;8.30;;;3.00;;
57317;SDS011;43157;50.982;18.132;2023-05-10T01:54:37;15.70;;;4.60;;
57317;SDS011;43157;50.982;18.132;2023-05-10T01:57:05;10.00;;;3.30;;
57317;SDS011;43157;50.982;18.132;2023-05-10T01:59:34;10.70;;;3.40;;
57317;SDS011;43157;50.982;18.132;2023-05-10T02:02:06;12.90;;;4.30;;
57317;SDS011;43157;50.982;18.132;2023-05-10T02:04:33;12.60;;;4.00;;
57317;SDS011;43157;50.982;18.132;2023-05-10T02:07:00;12.30;;;4.20;;
57317;SDS011;43157;50.982;18.132;2023-05-10T02:09:26;13.50;;;3.40;;
57317;SDS011;43157;50.982;18.132;2023-05-10T02:11:53;12.80;;;4.00;;
57317;SDS011;43157;50.982;18.132;2023-05-10T02:14:19;12.00;;;3.90;;
57317;SDS011;43157;50.982;18.132;2023-05-10T02:16:45;14.00;;;4.00;;
57317;SDS011;43157;50.982;18.132;2023-05-10T02:19:11;12.70;;;3.90;;
57317;SDS011;43157;50.982;18.132;2023-05-10T02:21:39;12.00;;;4.50;;
57317;SDS011;43157;50.982;18.132;2023-05-10T02:24:05;14.10;;;3.20;;
57317;SDS011;43157;50.982;18.132;2023-05-10T02:26:32;12.70;;;3.90;;
57317;SDS011;43157;50.982;18.132;2023-05-10T02:28:59;11.60;;;4.00;;
57317;SDS011;43157;50.982;18.132;2023-05-10T02:31:28;11.20;;;3.70;;
57317;SDS011;43157;50.982;18.132;2023-05-10T02:33:56;9.30;;;3.30;;
57317;SDS011;43157;50.982;18.132;2023-05-10T02:36:23;10.90;;;3.70;;
57317;SDS011;43157;50.982;18.132;2023-05-10T02:38:50;11.20;;;4.10;;
57317;SDS011;43157;50.982;18.132;2023-05-10T02:41:17;10.70;;;3.80;;
57317;SDS011;43157;50.982;18.132;2023-05-10T02:43:49;9.60;;;3.40;;
57317;SDS011;43157;50.982;18.132;2023-05-10T02:46:17;13.20;;;4.10;;
57317;SDS011;43157;50.982;18.132;2023-05-10T02:48:43;10.20;;;3.60;;
57317;SDS011;43157;50.982;18.132;2023-05-10T02:51:09;11.10;;;3.90;;
57317;SDS011;43157;50.982;18.132;2023-05-10T02:53:38;10.80;;;3.50;;
57317;SDS011;43157;50.982;18.132;2023-05-10T02:56:14;10.20;;;3.70;;
57317;SDS011;43157;50.982;18.132;2023-05-10T02:58:46;12.70;;;4.10;;
57317;SDS011;43157;50.982;18.132;2023-05-10T03:01:11;11.30;;;4.10;;
57317;SDS011;43157;50.982;18.132;2023-05-10T03:03:37;12.40;;;4.40;;
57317;SDS011;43157;50.982;18.132;2023-05-10T03:06:03;13.70;;;4.00;;
57317;SDS011;43157;50.982;18.132;2023-05-10T03:08:29;11.00;;;3.40;;
57317;SDS011;43157;50.982;18.132;2023-05-10T03:13:44;12.80;;;3.90;;
57317;SDS011;43157;50.982;18.132;2023-05-10T03:16:25;16.20;;;4.40;;
57317;SDS011;43157;50.982;18.132;2023-05-10T03:19:04;11.60;;;3.60;;
57317;SDS011;43157;50.982;18.132;2023-05-10T03:21:33;13.60;;;4.30;;
57317;SDS011;43157;50.982;18.132;2023-05-10T03:24:10;12.80;;;4.40;;
57317;SDS011;43157;50.982;18.132;2023-05-10T03:26:37;14.50;;;3.90;;
57317;SDS011;43157;50.982;18.132;2023-05-10T03:29:04;10.10;;;3.60;;
57317;SDS011;43157;50.982;18.132;2023-05-10T03:31:30;10.80;;;4.20;;
57317;SDS011;43157;50.982;18.132;2023-05-10T03:33:56;13.30;;;4.10;;
57317;SDS011;43157;50.982;18.132;2023-05-10T03:36:21;11.70;;;4.00;;
57317;SDS011;43157;50.982;18.132;2023-05-10T03:38:47;12.10;;;4.10;;
57317;SDS011;43157;50.982;18.132;2023-05-10T03:41:12;13.20;;;3.60;;
57317;SDS011;43157;50.982;18.132;2023-05-10T03:43:39;12.40;;;4.40;;
57317;SDS011;43157;50.982;18.132;2023-05-10T03:46:05;12.30;;;4.40;;
57317;SDS011;43157;50.982;18.132;2023-05-10T03:48:34;13.00;;;3.60;;
57317;SDS011;43157;50.982;18.132;2023-05-10T03:50:59;13.30;;;3.70;;
57317;SDS011;43157;50.982;18.132;2023-05-10T03:53:25;9.40;;;3.10;;
57317;SDS011;43157;50.982;18.132;2023-05-10T03:55:52;9.70;;;3.90;;
57317;SDS011;43157;50.982;18.132;2023-05-10T03:58:17;12.60;;;3.00;;
57317;SDS011;43157;50.982;18.132;2023-05-10T04:14:00;8.90;;;3.20;;
57317;SDS011;43157;50.982;18.132;2023-05-10T04:16:25;12.90;;;3.20;;
57317;SDS011;43157;50.982;18.132;2023-05-10T04:18:51;10.60;;;3.50;;
57317;SDS011;43157;50.982;18.132;2023-05-10T04:21:17;11.80;;;3.70;;
57317;SDS011;43157;50.982;18.132;2023-05-10T04:23:42;11.40;;;3.30;;
57317;SDS011;43157;50.982;18.132;2023-05-10T04:26:08;10.70;;;3.70;;
57317;SDS011;43157;50.982;18.132;2023-05-10T04:28:34;9.10;;;3.10;;
57317;SDS011;43157;50.982;18.132;2023-05-10T04:31:01;8.60;;;3.10;;
57317;SDS011;43157;50.982;18.132;2023-05-10T04:33:27;10.20;;;3.70;;
57317;SDS011;43157;50.982;18.132;2023-05-10T04:35:53;8.50;;;3.50;;
57317;SDS011;43157;50.982;18.132;2023-05-10T04:38:19;8.80;;;2.90;;
57317;SDS011;43157;50.982;18.132;2023-05-10T04:40:45;10.00;;;3.50;;
57317;SDS011;43157;50.982;18.132;2023-05-10T04:43:10;11.20;;;3.90;;
57317;SDS011;43157;50.982;18.132;2023-05-10T04:45:36;9.10;;;3.40;;
57317;SDS011;43157;50.982;18.132;2023-05-10T04:48:01;10.00;;;3.30;;
57317;SDS011;43157;50.982;18.132;2023-05-10T04:50:28;11.20;;;3.50;;
57317;SDS011;43157;50.982;18.132;2023-05-10T04:52:53;9.80;;;2.80;;
57317;SDS011;43157;50.982;18.132;2023-05-10T04:55:19;9.80;;;3.10;;
57317;SDS011;43157;50.982;18.132;2023-05-10T04:57:45;8.80;;;3.20;;
57317;SDS011;43157;50.982;18.132;2023-05-10T05:00:11;7.80;;;3.00;;
57317;SDS011;43157;50.982;18.132;2023-05-10T05:02:38;9.90;;;3.20;;
57317;SDS011;43157;50.982;18.132;2023-05-10T05:05:07;9.60;;;3.40;;
57317;SDS011;43157;50.982;18.132;2023-05-10T05:07:33;9.60;;;3.40;;
57317;SDS011;43157;50.982;18.132;2023-05-10T05:09:58;10.30;;;3.60;;
57317;SDS011;43157;50.982;18.132;2023-05-10T05:12:24;9.10;;;3.40;;
57317;SDS011;43157;50.982;18.132;2023-05-10T05:14:49;11.20;;;2.90;;
57317;SDS011;43157;50.982;18.132;2023-05-10T05:17:15;9.80;;;3.00;;
57317;SDS011;43157;50.982;18.132;2023-05-10T05:19:41;12.00;;;3.50;;
57317;SDS011;43157;50.982;18.132;2023-05-10T05:22:06;12.20;;;3.10;;
57317;SDS011;43157;50.982;18.132;2023-05-10T05:24:36;11.00;;;2.90;;
57317;SDS011;43157;50.982;18.132;2023-05-10T05:27:03;14.90;;;3.60;;
57317;SDS011;43157;50.982;18.132;2023-05-10T05:29:29;11.70;;;3.60;;
57317;SDS011;43157;50.982;18.132;2023-05-10T05:31:55;8.50;;;2.90;;
57317;SDS011;43157;50.982;18.132;2023-05-10T05:34:20;8.30;;;2.60;;
57317;SDS011;43157;50.982;18.132;2023-05-10T05:36:46;10.20;;;3.30;;
57317;SDS011;43157;50.982;18.132;2023-05-10T05:39:13;14.40;;;3.10;;
57317;SDS011;43157;50.982;18.132;2023-05-10T05:41:38;9.40;;;3.10;;
57317;SDS011;43157;50.982;18.132;2023-05-10T05:44:04;8.30;;;2.70;;
57317;SDS011;43157;50.982;18.132;2023-05-10T05:46:30;11.10;;;3.00;;
57317;SDS011;43157;50.982;18.132;2023-05-10T05:48:55;10.60;;;2.50;;
57317;SDS011;43157;50.982;18.132;2023-05-10T05:51:21;8.60;;;2.60;;
57317;SDS011;43157;50.982;18.132;2023-05-10T05:53:47;9.00;;;2.80;;
57317;SDS011;43157;50.982;18.132;2023-05-10T05:56:13;8.60;;;2.70;;
57317;SDS011;43157;50.982;18.132;2023-05-10T05:58:39;10.20;;;3.10;;
57317;SDS011;43157;50.982;18.132;2023-05-10T06:01:04;11.60;;;3.60;;
57317;SDS011;43157;50.982;18.132;2023-05-10T06:03:30;10.80;;;2.60;;
57317;SDS011;43157;50.982;18.132;2023-05-10T06:05:55;9.80;;;3.30;;
57317;SDS011;43157;50.982;18.132;2023-05-10T06:08:21;9.60;;;3.00;;
57317;SDS011;43157;50.982;18.132;2023-05-10T06:10:47;9.30;;;2.60;;
57317;SDS011;43157;50.982;18.132;2023-05-10T06:13:13;9.30;;;2.80;;
57317;SDS011;43157;50.982;18.132;2023-05-10T06:15:39;8.20;;;2.80;;
57317;SDS011;43157;50.982;18.132;2023-05-10T06:18:04;9.90;;;2.10;;
57317;SDS011;43157;50.982;18.132;2023-05-10T06:20:31;9.30;;;3.00;;
57317;SDS011;43157;50.982;18.132;2023-05-10T06:22:57;9.00;;;2.70;;
57317;SDS011;43157;50.982;18.132;2023-05-10T06:25:23;9.80;;;2.90;;
57317;SDS011;43157;50.982;18.132;2023-05-10T06:27:49;8.00;;;2.80;;
57317;SDS011;43157;50.982;18.132;2023-05-10T06:30:15;8.50;;;2.40;;
57317;SDS011;43157;50.982;18.132;2023-05-10T06:32:40;9.30;;;3.00;;
57317;SDS011;43157;50.982;18.132;2023-05-10T06:35:09;8.20;;;2.70;;
57317;SDS011;43157;50.982;18.132;2023-05-10T06:37:34;8.50;;;2.80;;
57317;SDS011;43157;50.982;18.132;2023-05-10T06:40:00;8.00;;;2.60;;
57317;SDS011;43157;50.982;18.132;2023-05-10T06:42:25;8.20;;;2.30;;
57317;SDS011;43157;50.982;18.132;2023-05-10T06:44:52;9.90;;;2.30;;
57317;SDS011;43157;50.982;18.132;2023-05-10T06:47:18;9.50;;;2.70;;
57317;SDS011;43157;50.982;18.132;2023-05-10T06:49:43;7.30;;;2.60;;
57317;SDS011;43157;50.982;18.132;2023-05-10T06:52:09;7.00;;;2.20;;
57317;SDS011;43157;50.982;18.132;2023-05-10T06:54:35;9.20;;;2.40;;
57317;SDS011;43157;50.982;18.132;2023-05-10T06:57:00;8.40;;;2.40;;
57317;SDS011;43157;50.982;18.132;2023-05-10T06:59:28;10.30;;;2.40;;
57317;SDS011;43157;50.982;18.132;2023-05-10T07:01:53;9.90;;;2.40;;
57317;SDS011;43157;50.982;18.132;2023-05-10T07:04:19;12.10;;;2.00;;
57317;SDS011;43157;50.982;18.132;2023-05-10T07:06:45;9.20;;;2.40;;
57317;SDS011;43157;50.982;18.132;2023-05-10T07:09:11;7.10;;;2.00;;
57317;SDS011;43157;50.982;18.132;2023-05-10T07:11:38;5.70;;;1.50;;
57317;SDS011;43157;50.982;18.132;2023-05-10T07:14:04;9.10;;;2.00;;
57317;SDS011;43157;50.982;18.132;2023-05-10T07:16:30;6.20;;;2.10;;
57317;SDS011;43157;50.982;18.132;2023-05-10T07:18:56;7.40;;;2.10;;
57317;SDS011;43157;50.982;18.132;2023-05-10T07:21:22;7.80;;;2.30;;
57317;SDS011;43157;50.982;18.132;2023-05-10T07:23:54;7.40;;;2.30;;
57317;SDS011;43157;50.982;18.132;2023-05-10T07:26:19;8.40;;;2.50;;
57317;SDS011;43157;50.982;18.132;2023-05-10T07:28:46;8.40;;;2.20;;
57317;SDS011;43157;50.982;18.132;2023-05-10T07:31:12;6.70;;;1.60;;
57317;SDS011;43157;50.982;18.132;2023-05-10T07:33:38;9.50;;;2.40;;
57317;SDS011;43157;50.982;18.132;2023-05-10T07:36:03;5.50;;;1.50;;
57317;SDS011;43157;50.982;18.132;2023-05-10T07:38:29;8.20;;;1.90;;
57317;SDS011;43157;50.982;18.132;2023-05-10T07:40:55;7.70;;;2.20;;
57317;SDS011;43157;50.982;18.132;2023-05-10T07:43:20;8.70;;;2.00;;
57317;SDS011;43157;50.982;18.132;2023-05-10T07:45:46;8.40;;;1.90;;
57317;SDS011;43157;50.982;18.132;2023-05-10T07:48:12;6.50;;;2.00;;
57317;SDS011;43157;50.982;18.132;2023-05-10T07:50:37;5.70;;;1.90;;
57317;SDS011;43157;50.982;18.132;2023-05-10T07:53:03;8.00;;;2.00;;
57317;SDS011;43157;50.982;18.132;2023-05-10T07:55:29;7.50;;;1.90;;
57317;SDS011;43157;50.982;18.132;2023-05-10T07:57:54;5.50;;;1.50;;
57317;SDS011;43157;50.982;18.132;2023-05-10T08:00:20;5.50;;;1.60;;
57317;SDS011;43157;50.982;18.132;2023-05-10T08:02:46;6.10;;;1.70;;
57317;SDS011;43157;50.982;18.132;2023-05-10T08:05:12;6.00;;;1.70;;
57317;SDS011;43157;50.982;18.132;2023-05-10T08:07:37;6.00;;;1.70;;
57317;SDS011;43157;50.982;18.132;2023-05-10T08:10:03;5.20;;;1.80;;
57317;SDS011;43157;50.982;18.132;2023-05-10T08:12:29;6.00;;;1.70;;
57317;SDS011;43157;50.982;18.132;2023-05-10T08:14:55;5.40;;;1.60;;
57317;SDS011;43157;50.982;18.132;2023-05-10T08:17:21;8.10;;;1.90;;
57317;SDS011;43157;50.982;18.132;2023-05-10T08:19:47;6.10;;;1.70;;
57317;SDS011;43157;50.982;18.132;2023-05-10T08:22:13;5.90;;;1.70;;
57317;SDS011;43157;50.982;18.132;2023-05-10T08:24:38;5.20;;;1.40;;
57317;SDS011;43157;50.982;18.132;2023-05-10T08:27:05;4.50;;;1.20;;
57317;SDS011;43157;50.982;18.132;2023-05-10T08:29:31;6.00;;;1.70;;
57317;SDS011;43157;50.982;18.132;2023-05-10T08:31:56;6.60;;;1.80;;
57317;SDS011;43157;50.982;18.132;2023-05-10T08:34:22;7.90;;;1.80;;
57317;SDS011;43157;50.982;18.132;2023-05-10T08:36:47;4.60;;;1.40;;
57317;SDS011;43157;50.982;18.132;2023-05-10T08:39:13;5.00;;;1.50;;
57317;SDS011;43157;50.982;18.132;2023-05-10T08:41:39;5.20;;;1.10;;
57317;SDS011;43157;50.982;18.132;2023-05-10T08:44:05;7.50;;;1.50;;
57317;SDS011;43157;50.982;18.132;2023-05-10T08:46:33;4.80;;;1.40;;
57317;SDS011;43157;50.982;18.132;2023-05-10T08:49:02;5.70;;;1.60;;
57317;SDS011;43157;50.982;18.132;2023-05-10T08:51:29;5.10;;;1.50;;
57317;SDS011;43157;50.982;18.132;2023-05-10T08:54:01;5.00;;;1.70;;
57317;SDS011;43157;50.982;18.132;2023-05-10T08:56:28;6.90;;;2.00;;
57317;SDS011;43157;50.982;18.132;2023-05-10T08:58:54;6.90;;;1.80;;
57317;SDS011;43157;50.982;18.132;2023-05-10T09:01:20;8.90;;;1.50;;
57317;SDS011;43157;50.982;18.132;2023-05-10T09:03:46;7.70;;;2.00;;
57317;SDS011;43157;50.982;18.132;2023-05-10T09:06:14;5.70;;;1.60;;
57317;SDS011;43157;50.982;18.132;2023-05-10T09:08:41;5.60;;;1.70;;
57317;SDS011;43157;50.982;18.132;2023-05-10T09:11:07;8.80;;;1.60;;
57317;SDS011;43157;50.982;18.132;2023-05-10T09:13:34;6.40;;;1.50;;
57317;SDS011;43157;50.982;18.132;2023-05-10T09:16:01;7.10;;;2.00;;
57317;SDS011;43157;50.982;18.132;2023-05-10T09:18:28;6.40;;;1.60;;
57317;SDS011;43157;50.982;18.132;2023-05-10T09:20:54;6.70;;;2.10;;
57317;SDS011;43157;50.982;18.132;2023-05-10T09:23:19;6.80;;;1.50;;
57317;SDS011;43157;50.982;18.132;2023-05-10T09:25:46;4.70;;;1.40;;
57317;SDS011;43157;50.982;18.132;2023-05-10T09:28:12;5.40;;;1.50;;
57317;SDS011;43157;50.982;18.132;2023-05-10T09:30:37;5.90;;;1.80;;
57317;SDS011;43157;50.982;18.132;2023-05-10T09:33:04;6.60;;;1.70;;
57317;SDS011;43157;50.982;18.132;2023-05-10T09:35:30;7.20;;;2.10;;
57317;SDS011;43157;50.982;18.132;2023-05-10T09:37:59;4.70;;;1.40;;
57317;SDS011;43157;50.982;18.132;2023-05-10T09:40:27;6.10;;;1.80;;
57317;SDS011;43157;50.982;18.132;2023-05-10T09:45:31;7.00;;;2.00;;
57317;SDS011;43157;50.982;18.132;2023-05-10T09:47:59;7.00;;;2.10;;
57317;SDS011;43157;50.982;18.132;2023-05-10T09:50:26;8.00;;;2.00;;
57317;SDS011;43157;50.982;18.132;2023-05-10T09:52:56;5.70;;;1.80;;
57317;SDS011;43157;50.982;18.132;2023-05-10T09:55:26;4.80;;;1.50;;
57317;SDS011;43157;50.982;18.132;2023-05-10T09:58:01;6.60;;;1.90;;
57317;SDS011;43157;50.982;18.132;2023-05-10T10:00:27;8.30;;;1.40;;
57317;SDS011;43157;50.982;18.132;2023-05-10T10:02:57;7.50;;;2.10;;
57317;SDS011;43157;50.982;18.132;2023-05-10T10:07:56;4.90;;;1.80;;
57317;SDS011;43157;50.982;18.132;2023-05-10T10:10:23;5.60;;;1.60;;
57317;SDS011;43157;50.982;18.132;2023-05-10T10:12:50;7.60;;;1.70;;
57317;SDS011;43157;50.982;18.132;2023-05-10T10:15:16;7.80;;;1.90;;
57317;SDS011;43157;50.982;18.132;2023-05-10T10:17:42;6.10;;;1.80;;
57317;SDS011;43157;50.982;18.132;2023-05-10T10:20:08;5.60;;;1.60;;
57317;SDS011;43157;50.982;18.132;2023-05-10T10:22:35;5.50;;;1.60;;
57317;SDS011;43157;50.982;18.132;2023-05-10T10:25:02;6.50;;;1.60;;
57317;SDS011;43157;50.982;18.132;2023-05-10T10:27:37;4.80;;;1.60;;
57317;SDS011;43157;50.982;18.132;2023-05-10T10:35:18;6.10;;;1.50;;
57317;SDS011;43157;50.982;18.132;2023-05-10T10:37:45;6.00;;;1.50;;
57317;SDS011;43157;50.982;18.132;2023-05-10T10:42:51;6.50;;;1.60;;
57317;SDS011;43157;50.982;18.132;2023-05-10T10:45:17;5.60;;;1.70;;
57317;SDS011;43157;50.982;18.132;2023-05-10T10:47:43;5.90;;;1.40;;
57317;SDS011;43157;50.982;18.132;2023-05-10T10:50:09;7.90;;;1.50;;
57317;SDS011;43157;50.982;18.132;2023-05-10T10:52:38;5.20;;;1.30;;
57317;SDS011;43157;50.982;18.132;2023-05-10T10:55:06;9.20;;;1.70;;
57317;SDS011;43157;50.982;18.132;2023-05-10T10:57:32;5.80;;;2.00;;
57317;SDS011;43157;50.982;18.132;2023-05-10T11:00:32;6.80;;;1.80;;
57317;SDS011;43157;50.982;18.132;2023-05-10T11:03:06;4.00;;;1.20;;
57317;SDS011;43157;50.982;18.132;2023-05-10T11:05:38;7.40;;;1.50;;
57317;SDS011;43157;50.982;18.132;2023-05-10T11:08:12;5.80;;;1.40;;
57317;SDS011;43157;50.982;18.132;2023-05-10T11:10:39;6.40;;;1.80;;
57317;SDS011;43157;50.982;18.132;2023-05-10T11:13:14;6.60;;;1.50;;
57317;SDS011;43157;50.982;18.132;2023-05-10T11:15:40;5.10;;;1.60;;
57317;SDS011;43157;50.982;18.132;2023-05-10T11:20:57;7.70;;;2.00;;
57317;SDS011;43157;50.982;18.132;2023-05-10T11:23:29;5.50;;;1.50;;
57317;SDS011;43157;50.982;18.132;2023-05-10T11:25:56;7.00;;;1.50;;
57317;SDS011;43157;50.982;18.132;2023-05-10T11:28:21;7.70;;;1.70;;
57317;SDS011;43157;50.982;18.132;2023-05-10T11:30:47;7.70;;;2.40;;
57317;SDS011;43157;50.982;18.132;2023-05-10T11:33:17;6.10;;;1.70;;
57317;SDS011;43157;50.982;18.132;2023-05-10T11:35:43;5.80;;;1.70;;
57317;SDS011;43157;50.982;18.132;2023-05-10T11:38:10;4.40;;;1.40;;
57317;SDS011;43157;50.982;18.132;2023-05-10T11:40:37;5.10;;;1.30;;
57317;SDS011;43157;50.982;18.132;2023-05-10T11:43:03;5.90;;;1.50;;
57317;SDS011;43157;50.982;18.132;2023-05-10T11:45:32;7.00;;;1.70;;
57317;SDS011;43157;50.982;18.132;2023-05-10T11:47:58;8.10;;;2.10;;
57317;SDS011;43157;50.982;18.132;2023-05-10T11:50:25;24.60;;;12.60;;
57317;SDS011;43157;50.982;18.132;2023-05-10T11:52:55;5.90;;;1.60;;
57317;SDS011;43157;50.982;18.132;2023-05-10T11:55:21;5.60;;;1.70;;
57317;SDS011;43157;50.982;18.132;2023-05-10T11:57:53;8.10;;;1.40;;
57317;SDS011;43157;50.982;18.132;2023-05-10T12:00:19;5.60;;;1.60;;
57317;SDS011;43157;50.982;18.132;2023-05-10T12:02:46;5.60;;;1.50;;
57317;SDS011;43157;50.982;18.132;2023-05-10T12:05:12;8.60;;;1.80;;
57317;SDS011;43157;50.982;18.132;2023-05-10T12:07:38;6.10;;;1.50;;
57317;SDS011;43157;50.982;18.132;2023-05-10T12:12:37;7.80;;;1.60;;
57317;SDS011;43157;50.982;18.132;2023-05-10T12:15:10;8.30;;;1.50;;
57317;SDS011;43157;50.982;18.132;2023-05-10T12:17:42;5.60;;;1.40;;
57317;SDS011;43157;50.982;18.132;2023-05-10T12:20:16;4.80;;;1.60;;
57317;SDS011;43157;50.982;18.132;2023-05-10T12:22:43;5.80;;;1.60;;
57317;SDS011;43157;50.982;18.132;2023-05-10T12:25:20;8.40;;;2.10;;
57317;SDS011;43157;50.982;18.132;2023-05-10T12:27:50;5.10;;;1.70;;
57317;SDS011;43157;50.982;18.132;2023-05-10T12:30:23;5.70;;;1.50;;
57317;SDS011;43157;50.982;18.132;2023-05-10T12:32:50;5.80;;;1.90;;
57317;SDS011;43157;50.982;18.132;2023-05-10T12:35:17;5.80;;;1.40;;
57317;SDS011;43157;50.982;18.132;2023-05-10T12:37:46;6.40;;;1.60;;
57317;SDS011;43157;50.982;18.132;2023-05-10T12:40:11;4.00;;;1.20;;
57317;SDS011;43157;50.982;18.132;2023-05-10T12:42:38;8.30;;;1.50;;
57317;SDS011;43157;50.982;18.132;2023-05-10T12:45:04;8.90;;;1.80;;
57317;SDS011;43157;50.982;18.132;2023-05-10T12:47:31;6.20;;;1.70;;
57317;SDS011;43157;50.982;18.132;2023-05-10T12:49:57;5.70;;;1.50;;
57317;SDS011;43157;50.982;18.132;2023-05-10T12:52:24;10.40;;;1.90;;
57317;SDS011;43157;50.982;18.132;2023-05-10T12:54:50;6.70;;;1.60;;
57317;SDS011;43157;50.982;18.132;2023-05-10T12:57:16;4.90;;;1.50;;
57317;SDS011;43157;50.982;18.132;2023-05-10T12:59:42;7.30;;;1.50;;
57317;SDS011;43157;50.982;18.132;2023-05-10T13:02:08;9.40;;;1.60;;
57317;SDS011;43157;50.982;18.132;2023-05-10T13:04:33;3.50;;;1.10;;
57317;SDS011;43157;50.982;18.132;2023-05-10T13:06:59;4.70;;;1.30;;
57317;SDS011;43157;50.982;18.132;2023-05-10T13:09:26;6.90;;;2.10;;
57317;SDS011;43157;50.982;18.132;2023-05-10T13:11:53;5.10;;;1.50;;
57317;SDS011;43157;50.982;18.132;2023-05-10T13:14:19;6.50;;;1.60;;
57317;SDS011;43157;50.982;18.132;2023-05-10T13:16:46;4.50;;;1.20;;
57317;SDS011;43157;50.982;18.132;2023-05-10T13:19:12;5.40;;;1.30;;
57317;SDS011;43157;50.982;18.132;2023-05-10T13:21:41;7.00;;;2.10;;
57317;SDS011;43157;50.982;18.132;2023-05-10T13:24:07;5.50;;;1.90;;
57317;SDS011;43157;50.982;18.132;2023-05-10T13:26:33;7.10;;;1.80;;
57317;SDS011;43157;50.982;18.132;2023-05-10T13:28:58;7.90;;;2.30;;
57317;SDS011;43157;50.982;18.132;2023-05-10T13:31:24;5.90;;;2.00;;
57317;SDS011;43157;50.982;18.132;2023-05-10T13:33:50;5.30;;;1.60;;
57317;SDS011;43157;50.982;18.132;2023-05-10T13:36:15;7.40;;;1.70;;
57317;SDS011;43157;50.982;18.132;2023-05-10T13:38:41;7.00;;;1.70;;
57317;SDS011;43157;50.982;18.132;2023-05-10T13:41:06;4.20;;;1.30;;
57317;SDS011;43157;50.982;18.132;2023-05-10T13:43:32;4.30;;;1.30;;
57317;SDS011;43157;50.982;18.132;2023-05-10T13:45:58;5.80;;;1.60;;
57317;SDS011;43157;50.982;18.132;2023-05-10T13:48:24;5.50;;;1.60;;
57317;SDS011;43157;50.982;18.132;2023-05-10T13:50:50;5.00;;;1.40;;
57317;SDS011;43157;50.982;18.132;2023-05-10T13:53:15;5.90;;;1.60;;
57317;SDS011;43157;50.982;18.132;2023-05-10T13:55:41;6.50;;;1.80;;
57317;SDS011;43157;50.982;18.132;2023-05-10T13:58:07;5.30;;;1.50;;
57317;SDS011;43157;50.982;18.132;2023-05-10T14:00:32;6.00;;;1.60;;
57317;SDS011;43157;50.982;18.132;2023-05-10T14:02:58;6.20;;;2.00;;
57317;SDS011;43157;50.982;18.132;2023-05-10T14:05:23;8.00;;;1.70;;
57317;SDS011;43157;50.982;18.132;2023-05-10T14:07:49;5.00;;;1.50;;
57317;SDS011;43157;50.982;18.132;2023-05-10T14:10:16;8.30;;;1.50;;
57317;SDS011;43157;50.982;18.132;2023-05-10T14:12:42;5.20;;;1.40;;
57317;SDS011;43157;50.982;18.132;2023-05-10T14:15:07;7.90;;;1.70;;
57317;SDS011;43157;50.982;18.132;2023-05-10T14:17:35;6.60;;;1.50;;
57317;SDS011;43157;50.982;18.132;2023-05-10T14:20:01;4.70;;;1.50;;
57317;SDS011;43157;50.982;18.132;2023-05-10T14:22:28;6.60;;;1.70;;
57317;SDS011;43157;50.982;18.132;2023-05-10T14:24:54;4.40;;;1.40;;
57317;SDS011;43157;50.982;18.132;2023-05-10T14:27:19;5.90;;;1.50;;
57317;SDS011;43157;50.982;18.132;2023-05-10T14:29:45;4.60;;;1.20;;
57317;SDS011;43157;50.982;18.132;2023-05-10T14:32:10;6.60;;;1.60;;
57317;SDS011;43157;50.982;18.132;2023-05-10T14:34:36;8.50;;;1.70;;
57317;SDS011;43157;50.982;18.132;2023-05-10T14:37:02;4.60;;;1.50;;
57317;SDS011;43157;50.982;18.132;2023-05-10T14:39:27;4.90;;;1.70;;
57317;SDS011;43157;50.982;18.132;2023-05-10T14:41:55;6.60;;;1.40;;
57317;SDS011;43157;50.982;18.132;2023-05-10T14:44:21;6.40;;;1.70;;
57317;SDS011;43157;50.982;18.132;2023-05-10T14:46:47;5.60;;;1.40;;
57317;SDS011;43157;50.982;18.132;2023-05-10T14:49:14;5.80;;;1.50;;
57317;SDS011;43157;50.982;18.132;2023-05-10T14:51:39;7.00;;;1.60;;
57317;SDS011;43157;50.982;18.132;2023-05-10T14:54:05;5.50;;;1.60;;
57317;SDS011;43157;50.982;18.132;2023-05-10T14:56:31;8.40;;;1.60;;
57317;SDS011;43157;50.982;18.132;2023-05-10T14:58:57;8.10;;;2.20;;
57317;SDS011;43157;50.982;18.132;2023-05-10T15:01:22;6.80;;;1.80;;
57317;SDS011;43157;50.982;18.132;2023-05-10T15:03:48;5.30;;;1.40;;
57317;SDS011;43157;50.982;18.132;2023-05-10T15:06:14;5.80;;;1.60;;
57317;SDS011;43157;50.982;18.132;2023-05-10T15:08:43;5.80;;;1.40;;
57317;SDS011;43157;50.982;18.132;2023-05-10T15:11:08;5.50;;;1.60;;
57317;SDS011;43157;50.982;18.132;2023-05-10T15:13:34;6.70;;;1.70;;
57317;SDS011;43157;50.982;18.132;2023-05-10T15:16:00;6.20;;;1.90;;
57317;SDS011;43157;50.982;18.132;2023-05-10T15:18:26;5.50;;;1.20;;